sensor_id;sensor_type;location;lat;lon;timestamp;pressure;altitude;pressure_sealevel;temperature;humidity
58757;BME280;44527;47.460;19.016;2023-02-18T00:01:02;100594.22;;;10.54;81.44
58757;BME280;44527;47.460;19.016;2023-02-18T00:04:06;100582.56;;;10.72;81.33
58757;BME280;44527;47.460;19.016;2023-02-18T00:07:08;100592.87;;;10.61;81.67
58757;BME280;44527;47.460;19.016;2023-02-18T00:10:13;100588.00;;;10.69;81.51
58757;BME280;44527;47.460;19.016;2023-02-18T00:13:15;100588.84;;;10.70;81.46
58757;BME280;44527;47.460;19.016;2023-02-18T00:16:18;100577.50;;;10.69;82.05
58757;BME280;44527;47.460;19.016;2023-02-18T00:19:21;100576.75;;;10.67;82.39
58757;BME280;44527;47.460;19.016;2023-02-18T00:22:23;100570.34;;;10.86;82.50
58757;BME280;44527;47.460;19.016;2023-02-18T00:25:26;100573.13;;;10.97;81.95
58757;BME280;44527;47.460;19.016;2023-02-18T00:28:28;100565.47;;;10.94;82.10
58757;BME280;44527;47.460;19.016;2023-02-18T00:31:33;100562.31;;;11.01;82.12
58757;BME280;44527;47.460;19.016;2023-02-18T00:34:37;100560.28;;;11.19;81.41
58757;BME280;44527;47.460;19.016;2023-02-18T00:37:39;100554.16;;;11.06;82.54
58757;BME280;44527;47.460;19.016;2023-02-18T00:40:42;100570.69;;;11.08;82.76
58757;BME280;44527;47.460;19.016;2023-02-18T00:43:45;100547.75;;;11.10;82.86
58757;BME280;44527;47.460;19.016;2023-02-18T00:46:47;100550.44;;;11.23;82.60
58757;BME280;44527;47.460;19.016;2023-02-18T00:49:50;100558.03;;;11.27;82.64
58757;BME280;44527;47.460;19.016;2023-02-18T00:52:53;100545.66;;;11.42;81.77
58757;BME280;44527;47.460;19.016;2023-02-18T00:55:56;100546.91;;;11.37;82.15
58757;BME280;44527;47.460;19.016;2023-02-18T00:58:59;100541.94;;;11.32;82.47
58757;BME280;44527;47.460;19.016;2023-02-18T01:02:01;100531.87;;;11.39;82.41
58757;BME280;44527;47.460;19.016;2023-02-18T01:05:04;100521.25;;;11.40;82.38
58757;BME280;44527;47.460;19.016;2023-02-18T01:08:08;100528.59;;;11.35;82.83
58757;BME280;44527;47.460;19.016;2023-02-18T01:11:11;100534.59;;;11.37;82.72
58757;BME280;44527;47.460;19.016;2023-02-18T01:14:14;100523.91;;;11.53;82.26
58757;BME280;44527;47.460;19.016;2023-02-18T01:17:19;100522.88;;;11.68;81.60
58757;BME280;44527;47.460;19.016;2023-02-18T01:20:21;100518.87;;;11.63;81.96
58757;BME280;44527;47.460;19.016;2023-02-18T01:23:24;100518.25;;;11.72;81.55
58757;BME280;44527;47.460;19.016;2023-02-18T01:26:26;100518.56;;;11.67;81.65
58757;BME280;44527;47.460;19.016;2023-02-18T01:29:29;100517.09;;;11.76;81.25
58757;BME280;44527;47.460;19.016;2023-02-18T01:32:32;100515.72;;;11.83;80.75
58757;BME280;44527;47.460;19.016;2023-02-18T01:35:37;100513.09;;;11.83;80.52
58757;BME280;44527;47.460;19.016;2023-02-18T01:38:39;100515.72;;;11.83;80.34
58757;BME280;44527;47.460;19.016;2023-02-18T01:41:42;100493.72;;;11.84;80.27
58757;BME280;44527;47.460;19.016;2023-02-18T01:44:46;100496.09;;;11.89;79.75
58757;BME280;44527;47.460;19.016;2023-02-18T01:47:49;100504.38;;;11.83;79.91
58757;BME280;44527;47.460;19.016;2023-02-18T01:51:06;100501.13;;;11.92;79.11
58757;BME280;44527;47.460;19.016;2023-02-18T01:54:13;100503.66;;;11.93;79.11
58757;BME280;44527;47.460;19.016;2023-02-18T01:57:20;100493.63;;;12.11;78.04
58757;BME280;44527;47.460;19.016;2023-02-18T02:00:24;100498.69;;;12.14;77.75
58757;BME280;44527;47.460;19.016;2023-02-18T02:03:27;100500.47;;;12.27;77.14
58757;BME280;44527;47.460;19.016;2023-02-18T02:06:30;100489.72;;;12.67;74.86
58757;BME280;44527;47.460;19.016;2023-02-18T02:09:34;100478.78;;;12.84;73.46
58757;BME280;44527;47.460;19.016;2023-02-18T02:16:17;100479.53;;;13.10;72.29
58757;BME280;44527;47.460;19.016;2023-02-18T02:26:55;100469.19;;;13.31;70.19
58757;BME280;44527;47.460;19.016;2023-02-18T02:40:28;100473.28;;;13.46;69.21
58757;BME280;44527;47.460;19.016;2023-02-18T02:43:58;100482.06;;;13.47;69.13
58757;BME280;44527;47.460;19.016;2023-02-18T02:47:40;100463.59;;;13.47;69.03
58757;BME280;44527;47.460;19.016;2023-02-18T02:51:07;100477.53;;;13.60;68.29
58757;BME280;44527;47.460;19.016;2023-02-18T02:54:23;100482.06;;;13.58;68.42
58757;BME280;44527;47.460;19.016;2023-02-18T03:03:48;100472.34;;;13.47;69.07
58757;BME280;44527;47.460;19.016;2023-02-18T03:07:18;100488.28;;;13.46;68.96
58757;BME280;44527;47.460;19.016;2023-02-18T03:14:05;100480.34;;;13.35;69.58
58757;BME280;44527;47.460;19.016;2023-02-18T03:17:19;100476.75;;;13.36;69.50
58757;BME280;44527;47.460;19.016;2023-02-18T03:20:54;100488.25;;;13.35;69.51
58757;BME280;44527;47.460;19.016;2023-02-18T03:24:06;100493.63;;;13.33;69.86
58757;BME280;44527;47.460;19.016;2023-02-18T03:27:15;100485.56;;;13.23;70.12
58757;BME280;44527;47.460;19.016;2023-02-18T03:30:23;100497.69;;;13.26;70.32
58757;BME280;44527;47.460;19.016;2023-02-18T03:33:38;100490.25;;;13.31;69.99
58757;BME280;44527;47.460;19.016;2023-02-18T03:36:43;100505.81;;;13.23;70.34
58757;BME280;44527;47.460;19.016;2023-02-18T03:39:51;100496.88;;;13.25;70.40
58757;BME280;44527;47.460;19.016;2023-02-18T03:42:57;100476.59;;;13.26;70.65
58757;BME280;44527;47.460;19.016;2023-02-18T03:46:00;100504.56;;;13.16;71.14
58757;BME280;44527;47.460;19.016;2023-02-18T03:49:03;100507.03;;;13.06;71.40
58757;BME280;44527;47.460;19.016;2023-02-18T03:52:06;100498.97;;;12.96;71.98
58757;BME280;44527;47.460;19.016;2023-02-18T03:55:09;100523.06;;;12.79;73.00
58757;BME280;44527;47.460;19.016;2023-02-18T03:58:12;100510.03;;;12.77;73.11
58757;BME280;44527;47.460;19.016;2023-02-18T04:01:15;100524.97;;;12.77;73.23
58757;BME280;44527;47.460;19.016;2023-02-18T04:04:17;100529.59;;;12.73;73.46
58757;BME280;44527;47.460;19.016;2023-02-18T04:07:20;100537.72;;;12.70;73.83
58757;BME280;44527;47.460;19.016;2023-02-18T04:10:22;100530.94;;;12.55;75.00
58757;BME280;44527;47.460;19.016;2023-02-18T04:13:25;100529.16;;;12.55;75.07
58757;BME280;44527;47.460;19.016;2023-02-18T04:16:27;100530.91;;;12.68;74.73
58757;BME280;44527;47.460;19.016;2023-02-18T04:19:30;100533.53;;;12.68;74.91
58757;BME280;44527;47.460;19.016;2023-02-18T04:22:33;100535.84;;;12.72;74.86
58757;BME280;44527;47.460;19.016;2023-02-18T04:25:35;100534.25;;;12.70;74.82
58757;BME280;44527;47.460;19.016;2023-02-18T04:28:37;100528.16;;;12.69;74.88
58757;BME280;44527;47.460;19.016;2023-02-18T04:31:40;100528.78;;;12.73;74.68
58757;BME280;44527;47.460;19.016;2023-02-18T04:34:43;100530.69;;;12.58;75.29
58757;BME280;44527;47.460;19.016;2023-02-18T04:37:45;100535.25;;;12.56;75.43
58757;BME280;44527;47.460;19.016;2023-02-18T04:40:48;100537.16;;;12.54;75.60
58757;BME280;44527;47.460;19.016;2023-02-18T04:43:50;100539.38;;;12.47;75.95
58757;BME280;44527;47.460;19.016;2023-02-18T04:46:53;100542.31;;;12.42;76.34
58757;BME280;44527;47.460;19.016;2023-02-18T04:49:55;100552.66;;;12.33;77.03
58757;BME280;44527;47.460;19.016;2023-02-18T04:52:58;100551.94;;;12.31;77.23
58757;BME280;44527;47.460;19.016;2023-02-18T04:56:00;100553.31;;;12.24;77.73
58757;BME280;44527;47.460;19.016;2023-02-18T04:59:03;100551.28;;;12.27;78.87
58757;BME280;44527;47.460;19.016;2023-02-18T05:02:05;100562.87;;;12.37;78.30
58757;BME280;44527;47.460;19.016;2023-02-18T05:05:08;100560.16;;;12.26;78.76
58757;BME280;44527;47.460;19.016;2023-02-18T05:08:11;100566.47;;;12.24;78.66
58757;BME280;44527;47.460;19.016;2023-02-18T05:11:13;100562.78;;;12.26;78.28
58757;BME280;44527;47.460;19.016;2023-02-18T05:14:16;100565.22;;;12.16;78.97
58757;BME280;44527;47.460;19.016;2023-02-18T05:17:19;100576.06;;;12.25;78.26
58757;BME280;44527;47.460;19.016;2023-02-18T05:20:22;100566.88;;;12.17;78.80
58757;BME280;44527;47.460;19.016;2023-02-18T05:23:24;100579.22;;;12.04;79.28
58757;BME280;44527;47.460;19.016;2023-02-18T05:26:27;100578.16;;;12.07;79.42
58757;BME280;44527;47.460;19.016;2023-02-18T05:29:29;100595.53;;;12.09;79.01
58757;BME280;44527;47.460;19.016;2023-02-18T05:32:32;100601.50;;;12.11;79.28
58757;BME280;44527;47.460;19.016;2023-02-18T05:35:35;100595.22;;;12.14;79.23
58757;BME280;44527;47.460;19.016;2023-02-18T05:38:37;100601.94;;;12.18;79.17
58757;BME280;44527;47.460;19.016;2023-02-18T05:41:40;100594.78;;;12.07;80.22
58757;BME280;44527;47.460;19.016;2023-02-18T05:44:43;100609.63;;;12.08;80.18
58757;BME280;44527;47.460;19.016;2023-02-18T05:47:45;100603.50;;;12.08;80.32
58757;BME280;44527;47.460;19.016;2023-02-18T05:50:47;100607.94;;;12.07;80.57
58757;BME280;44527;47.460;19.016;2023-02-18T05:53:50;100618.75;;;12.03;80.90
58757;BME280;44527;47.460;19.016;2023-02-18T05:56:53;100613.91;;;11.96;81.05
58757;BME280;44527;47.460;19.016;2023-02-18T05:59:56;100624.28;;;12.12;80.26
58757;BME280;44527;47.460;19.016;2023-02-18T06:03:01;100631.97;;;12.15;80.09
58757;BME280;44527;47.460;19.016;2023-02-18T06:06:04;100649.84;;;12.10;80.12
58757;BME280;44527;47.460;19.016;2023-02-18T06:09:07;100642.16;;;12.07;80.60
58757;BME280;44527;47.460;19.016;2023-02-18T06:12:10;100637.94;;;12.17;80.33
58757;BME280;44527;47.460;19.016;2023-02-18T06:15:13;100651.31;;;12.14;80.57
58757;BME280;44527;47.460;19.016;2023-02-18T06:18:15;100654.34;;;12.08;81.20
58757;BME280;44527;47.460;19.016;2023-02-18T06:21:18;100651.91;;;11.92;81.65
58757;BME280;44527;47.460;19.016;2023-02-18T06:24:20;100656.41;;;11.90;81.46
58757;BME280;44527;47.460;19.016;2023-02-18T06:27:23;100671.06;;;11.94;81.06
58757;BME280;44527;47.460;19.016;2023-02-18T06:30:25;100668.22;;;11.98;81.22
58757;BME280;44527;47.460;19.016;2023-02-18T06:33:28;100680.19;;;11.89;81.57
58757;BME280;44527;47.460;19.016;2023-02-18T06:36:33;100700.09;;;11.93;82.52
58757;BME280;44527;47.460;19.016;2023-02-18T06:39:35;100684.56;;;11.76;87.65
58757;BME280;44527;47.460;19.016;2023-02-18T06:42:39;100675.28;;;11.70;89.48
58757;BME280;44527;47.460;19.016;2023-02-18T06:45:42;100666.34;;;11.72;89.77
58757;BME280;44527;47.460;19.016;2023-02-18T06:48:45;100660.09;;;11.61;91.07
58757;BME280;44527;47.460;19.016;2023-02-18T06:51:47;100669.03;;;11.58;91.10
58757;BME280;44527;47.460;19.016;2023-02-18T06:54:50;100665.38;;;11.61;91.11
58757;BME280;44527;47.460;19.016;2023-02-18T06:57:52;100674.31;;;11.71;89.79
58757;BME280;44527;47.460;19.016;2023-02-18T07:00:54;100672.25;;;11.76;89.25
58757;BME280;44527;47.460;19.016;2023-02-18T07:03:56;100676.22;;;11.96;88.83
58757;BME280;44527;47.460;19.016;2023-02-18T07:06:59;100673.47;;;11.85;89.36
58757;BME280;44527;47.460;19.016;2023-02-18T07:10:02;100682.50;;;11.93;89.42
58757;BME280;44527;47.460;19.016;2023-02-18T07:13:05;100682.50;;;11.93;89.25
58757;BME280;44527;47.460;19.016;2023-02-18T07:16:08;100684.50;;;11.90;90.10
58757;BME280;44527;47.460;19.016;2023-02-18T07:19:12;100685.25;;;11.92;89.12
58757;BME280;44527;47.460;19.016;2023-02-18T07:22:16;100690.53;;;12.05;88.39
58757;BME280;44527;47.460;19.016;2023-02-18T07:25:19;100694.22;;;12.15;87.64
58757;BME280;44527;47.460;19.016;2023-02-18T07:28:24;100685.19;;;12.06;87.63
58757;BME280;44527;47.460;19.016;2023-02-18T07:31:27;100688.28;;;12.26;86.83
58757;BME280;44527;47.460;19.016;2023-02-18T07:34:29;100692.91;;;12.35;85.73
58757;BME280;44527;47.460;19.016;2023-02-18T07:37:32;100678.28;;;12.44;84.62
58757;BME280;44527;47.460;19.016;2023-02-18T07:40:35;100671.44;;;12.41;84.97
58757;BME280;44527;47.460;19.016;2023-02-18T07:43:37;100672.06;;;12.57;83.36
58757;BME280;44527;47.460;19.016;2023-02-18T07:46:40;100676.25;;;12.73;82.30
58757;BME280;44527;47.460;19.016;2023-02-18T07:49:44;100678.56;;;12.90;81.41
58757;BME280;44527;47.460;19.016;2023-02-18T07:52:47;100671.94;;;13.21;79.76
58757;BME280;44527;47.460;19.016;2023-02-18T07:55:49;100672.81;;;13.35;79.20
58757;BME280;44527;47.460;19.016;2023-02-18T07:58:51;100672.38;;;13.28;79.01
58757;BME280;44527;47.460;19.016;2023-02-18T08:01:54;100672.88;;;13.33;78.51
58757;BME280;44527;47.460;19.016;2023-02-18T08:05:00;100668.00;;;13.40;78.07
58757;BME280;44527;47.460;19.016;2023-02-18T08:08:02;100674.78;;;13.31;78.80
58757;BME280;44527;47.460;19.016;2023-02-18T08:11:04;100669.31;;;13.21;78.84
58757;BME280;44527;47.460;19.016;2023-02-18T08:14:20;100668.06;;;13.27;78.54
58757;BME280;44527;47.460;19.016;2023-02-18T08:17:22;100674.47;;;13.36;78.21
58757;BME280;44527;47.460;19.016;2023-02-18T08:20:25;100664.03;;;13.58;76.52
58757;BME280;44527;47.460;19.016;2023-02-18T08:23:28;100666.59;;;13.71;75.55
58757;BME280;44527;47.460;19.016;2023-02-18T08:26:30;100671.31;;;13.78;73.84
58757;BME280;44527;47.460;19.016;2023-02-18T08:29:33;100670.28;;;13.92;73.54
58757;BME280;44527;47.460;19.016;2023-02-18T08:32:35;100674.00;;;13.90;73.82
58757;BME280;44527;47.460;19.016;2023-02-18T08:35:38;100675.97;;;13.99;73.38
58757;BME280;44527;47.460;19.016;2023-02-18T08:38:40;100672.72;;;14.07;72.76
58757;BME280;44527;47.460;19.016;2023-02-18T08:41:43;100667.44;;;14.07;72.49
58757;BME280;44527;47.460;19.016;2023-02-18T08:44:45;100673.47;;;14.20;71.89
58757;BME280;44527;47.460;19.016;2023-02-18T08:47:48;100667.97;;;14.12;72.32
58757;BME280;44527;47.460;19.016;2023-02-18T08:51:15;100671.91;;;14.06;72.34
58757;BME280;44527;47.460;19.016;2023-02-18T08:54:18;100674.87;;;14.01;73.16
58757;BME280;44527;47.460;19.016;2023-02-18T08:57:20;100661.63;;;14.25;71.44
58757;BME280;44527;47.460;19.016;2023-02-18T09:00:23;100652.88;;;14.36;71.70
58757;BME280;44527;47.460;19.016;2023-02-18T09:03:26;100669.94;;;14.43;71.79
58757;BME280;44527;47.460;19.016;2023-02-18T09:06:28;100680.91;;;14.61;71.42
58757;BME280;44527;47.460;19.016;2023-02-18T09:09:31;100675.50;;;14.63;70.99
58757;BME280;44527;47.460;19.016;2023-02-18T09:12:35;100674.22;;;14.22;72.30
58757;BME280;44527;47.460;19.016;2023-02-18T09:15:37;100666.16;;;14.12;71.67
58757;BME280;44527;47.460;19.016;2023-02-18T09:18:44;100682.09;;;13.75;74.22
58757;BME280;44527;47.460;19.016;2023-02-18T09:21:46;100674.94;;;13.53;76.33
58757;BME280;44527;47.460;19.016;2023-02-18T09:24:49;100669.75;;;13.52;76.59
58757;BME280;44527;47.460;19.016;2023-02-18T09:27:51;100680.06;;;13.31;78.71
58757;BME280;44527;47.460;19.016;2023-02-18T09:30:54;100668.31;;;13.48;77.83
58757;BME280;44527;47.460;19.016;2023-02-18T09:34:01;100659.81;;;13.55;77.01
58757;BME280;44527;47.460;19.016;2023-02-18T09:37:04;100662.44;;;13.79;75.08
58757;BME280;44527;47.460;19.016;2023-02-18T09:40:09;100652.22;;;13.99;74.52
58757;BME280;44527;47.460;19.016;2023-02-18T09:43:28;100645.50;;;14.06;74.02
58757;BME280;44527;47.460;19.016;2023-02-18T09:46:36;100649.72;;;14.09;74.33
58757;BME280;44527;47.460;19.016;2023-02-18T09:49:43;100652.53;;;14.30;71.40
58757;BME280;44527;47.460;19.016;2023-02-18T09:52:48;100650.19;;;14.14;71.74
58757;BME280;44527;47.460;19.016;2023-02-18T09:55:59;100647.53;;;14.14;71.80
58757;BME280;44527;47.460;19.016;2023-02-18T09:59:04;100651.28;;;14.22;71.38
58757;BME280;44527;47.460;19.016;2023-02-18T10:02:12;100640.63;;;14.35;70.27
58757;BME280;44527;47.460;19.016;2023-02-18T10:05:19;100631.88;;;14.46;70.37
58757;BME280;44527;47.460;19.016;2023-02-18T10:08:25;100650.00;;;14.39;70.61
58757;BME280;44527;47.460;19.016;2023-02-18T10:11:32;100643.91;;;14.39;70.50
58757;BME280;44527;47.460;19.016;2023-02-18T10:14:36;100644.00;;;14.37;70.76
58757;BME280;44527;47.460;19.016;2023-02-18T10:17:39;100645.66;;;14.38;69.95
58757;BME280;44527;47.460;19.016;2023-02-18T10:20:41;100640.25;;;14.29;70.72
58757;BME280;44527;47.460;19.016;2023-02-18T10:23:59;100631.47;;;14.17;70.70
58757;BME280;44527;47.460;19.016;2023-02-18T10:27:05;100628.22;;;14.13;70.08
58757;BME280;44527;47.460;19.016;2023-02-18T10:36:26;100645.88;;;14.13;69.58
58757;BME280;44527;47.460;19.016;2023-02-18T10:50:00;100620.75;;;14.65;69.72
58757;BME280;44527;47.460;19.016;2023-02-18T10:59:56;100611.72;;;15.33;67.75
58757;BME280;44527;47.460;19.016;2023-02-18T11:03:18;100597.84;;;15.52;66.00
58757;BME280;44527;47.460;19.016;2023-02-18T11:06:31;100598.84;;;15.72;65.75
58757;BME280;44527;47.460;19.016;2023-02-18T11:09:52;100597.66;;;15.65;66.48
58757;BME280;44527;47.460;19.016;2023-02-18T11:12:59;100595.41;;;15.28;66.10
58757;BME280;44527;47.460;19.016;2023-02-18T11:16:06;100590.03;;;15.19;67.22
58757;BME280;44527;47.460;19.016;2023-02-18T11:19:34;100589.53;;;15.25;66.90
58757;BME280;44527;47.460;19.016;2023-02-18T11:22:36;100581.03;;;15.10;67.24
58757;BME280;44527;47.460;19.016;2023-02-18T11:25:59;100576.84;;;15.07;68.41
58757;BME280;44527;47.460;19.016;2023-02-18T11:29:19;100576.09;;;15.16;68.43
58757;BME280;44527;47.460;19.016;2023-02-18T11:32:26;100568.72;;;15.31;66.64
58757;BME280;44527;47.460;19.016;2023-02-18T11:35:31;100566.56;;;15.25;67.44
58757;BME280;44527;47.460;19.016;2023-02-18T11:38:36;100565.31;;;15.40;66.61
58757;BME280;44527;47.460;19.016;2023-02-18T11:41:42;100557.16;;;15.32;67.82
58757;BME280;44527;47.460;19.016;2023-02-18T11:44:55;100549.56;;;15.39;67.49
58757;BME280;44527;47.460;19.016;2023-02-18T11:48:18;100544.53;;;15.36;68.02
58757;BME280;44527;47.460;19.016;2023-02-18T11:51:32;100539.56;;;15.43;67.99
58757;BME280;44527;47.460;19.016;2023-02-18T11:54:38;100535.97;;;15.44;67.19
58757;BME280;44527;47.460;19.016;2023-02-18T11:57:45;100525.63;;;15.40;67.45
58757;BME280;44527;47.460;19.016;2023-02-18T12:00:49;100519.31;;;15.53;67.40
58757;BME280;44527;47.460;19.016;2023-02-18T12:04:06;100520.91;;;15.23;66.21
58757;BME280;44527;47.460;19.016;2023-02-18T12:07:27;100505.44;;;15.19;67.42
58757;BME280;44527;47.460;19.016;2023-02-18T12:10:46;100503.88;;;15.16;67.08
58757;BME280;44527;47.460;19.016;2023-02-18T12:13:52;100489.50;;;15.30;66.32
58757;BME280;44527;47.460;19.016;2023-02-18T12:23:57;100478.97;;;15.39;65.39
58757;BME280;44527;47.460;19.016;2023-02-18T12:27:37;100460.97;;;15.33;64.51
58757;BME280;44527;47.460;19.016;2023-02-18T12:31:11;100474.47;;;15.30;63.50
58757;BME280;44527;47.460;19.016;2023-02-18T12:37:46;100461.38;;;15.29;64.01
58757;BME280;44527;47.460;19.016;2023-02-18T12:51:21;100443.28;;;16.47;60.34
58757;BME280;44527;47.460;19.016;2023-02-18T12:58:22;100432.59;;;16.18;59.50
58757;BME280;44527;47.460;19.016;2023-02-18T13:01:49;100430.37;;;16.13;60.07
58757;BME280;44527;47.460;19.016;2023-02-18T13:11:49;100434.50;;;16.06;59.90
58757;BME280;44527;47.460;19.016;2023-02-18T13:15:02;100398.97;;;15.99;60.13
58757;BME280;44527;47.460;19.016;2023-02-18T13:18:12;100407.75;;;15.99;60.46
58757;BME280;44527;47.460;19.016;2023-02-18T13:21:16;100406.09;;;16.08;60.05
58757;BME280;44527;47.460;19.016;2023-02-18T13:24:27;100403.06;;;16.22;59.34
58757;BME280;44527;47.460;19.016;2023-02-18T13:27:39;100407.56;;;16.31;59.01
58757;BME280;44527;47.460;19.016;2023-02-18T13:34:23;100389.47;;;16.56;58.54
58757;BME280;44527;47.460;19.016;2023-02-18T13:40:57;100393.50;;;16.41;58.41
58757;BME280;44527;47.460;19.016;2023-02-18T13:44:06;100392.06;;;16.27;58.61
58757;BME280;44527;47.460;19.016;2023-02-18T13:47:09;100378.25;;;16.23;59.21
58757;BME280;44527;47.460;19.016;2023-02-18T13:53:24;100365.72;;;16.35;59.25
58757;BME280;44527;47.460;19.016;2023-02-18T13:56:32;100355.97;;;16.26;59.42
58757;BME280;44527;47.460;19.016;2023-02-18T13:59:40;100347.69;;;16.09;59.68
58757;BME280;44527;47.460;19.016;2023-02-18T14:02:57;100353.97;;;16.08;60.27
58757;BME280;44527;47.460;19.016;2023-02-18T14:06:03;100345.94;;;16.20;60.39
58757;BME280;44527;47.460;19.016;2023-02-18T14:18:33;100318.87;;;16.26;61.07
58757;BME280;44527;47.460;19.016;2023-02-18T14:22:23;100311.34;;;16.31;60.76
58757;BME280;44527;47.460;19.016;2023-02-18T14:25:38;100299.09;;;16.30;59.92
58757;BME280;44527;47.460;19.016;2023-02-18T14:28:54;100304.94;;;16.34;59.95
58757;BME280;44527;47.460;19.016;2023-02-18T14:32:09;100298.81;;;16.23;60.11
58757;BME280;44527;47.460;19.016;2023-02-18T14:52:03;100280.28;;;16.23;60.71
58757;BME280;44527;47.460;19.016;2023-02-18T14:55:17;100285.03;;;16.29;60.32
58757;BME280;44527;47.460;19.016;2023-02-18T15:01:33;100291.91;;;15.42;60.13
58757;BME280;44527;47.460;19.016;2023-02-18T15:04:36;100281.75;;;15.06;60.36
58757;BME280;44527;47.460;19.016;2023-02-18T15:07:39;100275.22;;;14.80;60.38
58757;BME280;44527;47.460;19.016;2023-02-18T15:11:03;100276.94;;;14.48;61.04
58757;BME280;44527;47.460;19.016;2023-02-18T15:14:10;100276.91;;;14.28;60.89
58757;BME280;44527;47.460;19.016;2023-02-18T15:17:22;100266.06;;;14.10;60.96
58757;BME280;44527;47.460;19.016;2023-02-18T15:20:26;100261.34;;;13.81;61.24
58757;BME280;44527;47.460;19.016;2023-02-18T15:23:30;100262.69;;;13.64;61.76
58757;BME280;44527;47.460;19.016;2023-02-18T15:26:40;100266.06;;;13.55;62.17
58757;BME280;44527;47.460;19.016;2023-02-18T15:29:49;100265.84;;;13.36;62.75
58757;BME280;44527;47.460;19.016;2023-02-18T15:32:54;100272.66;;;13.04;63.72
58757;BME280;44527;47.460;19.016;2023-02-18T15:36:04;100275.25;;;12.82;64.38
58757;BME280;44527;47.460;19.016;2023-02-18T15:39:08;100273.78;;;12.67;65.21
58757;BME280;44527;47.460;19.016;2023-02-18T15:42:16;100267.78;;;12.53;65.78
58757;BME280;44527;47.460;19.016;2023-02-18T15:45:22;100272.62;;;12.35;66.14
58757;BME280;44527;47.460;19.016;2023-02-18T15:51:34;100258.03;;;12.07;67.17
58757;BME280;44527;47.460;19.016;2023-02-18T15:54:39;100258.56;;;11.88;67.47
58757;BME280;44527;47.460;19.016;2023-02-18T15:57:43;100267.91;;;11.80;67.76
58757;BME280;44527;47.460;19.016;2023-02-18T16:00:54;100259.12;;;11.68;68.32
58757;BME280;44527;47.460;19.016;2023-02-18T16:03:58;100265.44;;;11.65;67.84
58757;BME280;44527;47.460;19.016;2023-02-18T16:07:14;100249.72;;;11.53;68.05
58757;BME280;44527;47.460;19.016;2023-02-18T16:10:21;100255.62;;;11.43;67.99
58757;BME280;44527;47.460;19.016;2023-02-18T16:13:24;100260.38;;;11.25;68.76
58757;BME280;44527;47.460;19.016;2023-02-18T16:16:30;100271.53;;;11.16;69.10
58757;BME280;44527;47.460;19.016;2023-02-18T16:20:16;100261.88;;;11.04;69.61
58757;BME280;44527;47.460;19.016;2023-02-18T16:23:12;100257.37;;;10.93;70.58
58757;BME280;44527;47.460;19.016;2023-02-18T16:29:35;100250.63;;;10.64;71.80
58757;BME280;44527;47.460;19.016;2023-02-18T16:32:38;100255.03;;;10.50;72.64
58757;BME280;44527;47.460;19.016;2023-02-18T16:35:41;100251.13;;;10.43;73.17
58757;BME280;44527;47.460;19.016;2023-02-18T16:38:51;100247.75;;;10.28;73.77
58757;BME280;44527;47.460;19.016;2023-02-18T16:41:54;100241.00;;;10.24;74.00
58757;BME280;44527;47.460;19.016;2023-02-18T16:44:56;100238.78;;;10.18;74.38
58757;BME280;44527;47.460;19.016;2023-02-18T16:47:59;100229.31;;;10.16;74.65
58757;BME280;44527;47.460;19.016;2023-02-18T16:51:04;100231.31;;;10.12;74.75
58757;BME280;44527;47.460;19.016;2023-02-18T16:54:10;100237.91;;;10.05;75.20
58757;BME280;44527;47.460;19.016;2023-02-18T16:57:13;100239.50;;;10.07;75.02
58757;BME280;44527;47.460;19.016;2023-02-18T17:00:17;100239.03;;;10.01;75.55
58757;BME280;44527;47.460;19.016;2023-02-18T17:03:20;100233.78;;;10.01;75.46
58757;BME280;44527;47.460;19.016;2023-02-18T17:06:23;100246.97;;;10.13;74.85
58757;BME280;44527;47.460;19.016;2023-02-18T17:09:26;100245.22;;;10.00;75.43
58757;BME280;44527;47.460;19.016;2023-02-18T17:12:29;100242.44;;;9.88;76.09
58757;BME280;44527;47.460;19.016;2023-02-18T17:15:33;100250.78;;;9.95;75.85
58757;BME280;44527;47.460;19.016;2023-02-18T17:18:37;100253.28;;;9.70;76.83
58757;BME280;44527;47.460;19.016;2023-02-18T17:21:39;100260.50;;;9.66;77.14
58757;BME280;44527;47.460;19.016;2023-02-18T17:24:42;100254.63;;;9.62;77.28
58757;BME280;44527;47.460;19.016;2023-02-18T17:27:44;100255.97;;;9.55;77.52
58757;BME280;44527;47.460;19.016;2023-02-18T17:30:53;100261.09;;;9.57;77.50
58757;BME280;44527;47.460;19.016;2023-02-18T17:34:04;100263.72;;;9.57;77.23
58757;BME280;44527;47.460;19.016;2023-02-18T17:37:11;100246.97;;;9.45;77.98
58757;BME280;44527;47.460;19.016;2023-02-18T17:40:17;100242.62;;;9.31;78.61
58757;BME280;44527;47.460;19.016;2023-02-18T17:43:20;100240.91;;;9.30;78.82
58757;BME280;44527;47.460;19.016;2023-02-18T17:46:26;100241.47;;;9.21;79.26
58757;BME280;44527;47.460;19.016;2023-02-18T17:49:29;100247.22;;;9.13;79.44
58757;BME280;44527;47.460;19.016;2023-02-18T17:52:31;100246.38;;;9.13;79.54
58757;BME280;44527;47.460;19.016;2023-02-18T17:55:34;100232.16;;;9.03;80.42
58757;BME280;44527;47.460;19.016;2023-02-18T17:58:37;100235.91;;;8.98;80.81
58757;BME280;44527;47.460;19.016;2023-02-18T18:01:41;100227.47;;;8.93;81.22
58757;BME280;44527;47.460;19.016;2023-02-18T18:04:44;100226.56;;;8.94;81.45
58757;BME280;44527;47.460;19.016;2023-02-18T18:07:47;100229.44;;;8.90;81.72
58757;BME280;44527;47.460;19.016;2023-02-18T18:10:57;100222.63;;;8.87;82.12
58757;BME280;44527;47.460;19.016;2023-02-18T18:14:00;100226.75;;;8.91;81.95